createdAt,value
2018-07-01T00:00:16.193Z,-72
2018-07-01T00:02:47.299Z,-72
2018-07-01T00:05:19.617Z,-72
2018-07-01T00:07:51.484Z,-73
2018-07-01T00:10:21.990Z,-73
2018-07-01T00:12:52.462Z,-73
2018-07-01T00:15:22.695Z,-72
2018-07-01T00:17:53.145Z,-72
2018-07-01T00:20:23.551Z,-72
2018-07-01T00:22:55.032Z,-72
2018-07-01T00:25:25.510Z,-72
2018-07-01T00:27:55.763Z,-72
2018-07-01T00:30:26.023Z,-72
2018-07-01T00:32:56.291Z,-72
2018-07-01T00:35:26.571Z,-72
2018-07-01T00:37:56.854Z,-72
2018-07-01T00:40:27.062Z,-72
2018-07-01T00:42:57.346Z,-72
2018-07-01T00:45:27.659Z,-72
2018-07-01T00:47:57.939Z,-72
2018-07-01T00:50:28.266Z,-72
2018-07-01T00:52:58.504Z,-72
2018-07-01T00:55:28.755Z,-72
2018-07-01T00:57:59.133Z,-72
2018-07-01T01:00:33.007Z,-72
2018-07-01T01:03:03.993Z,-73
2018-07-01T01:05:34.243Z,-72
2018-07-01T01:08:04.551Z,-72
2018-07-01T01:10:35.167Z,-72
2018-07-01T01:13:05.638Z,-72
2018-07-01T01:15:36.982Z,-72
2018-07-01T01:18:07.579Z,-72
2018-07-01T01:20:37.854Z,-72
2018-07-01T01:23:08.162Z,-72
2018-07-01T01:25:38.376Z,-72
2018-07-01T01:28:08.669Z,-72
2018-07-01T01:30:38.874Z,-72
2018-07-01T01:33:09.162Z,-72
2018-07-01T01:35:39.509Z,-72
2018-07-01T01:38:09.842Z,-72
2018-07-01T01:40:44.040Z,-72
2018-07-01T01:43:19.886Z,-72
2018-07-01T01:46:57.328Z,-72
2018-07-01T01:49:33.476Z,-72
2018-07-01T01:52:09.800Z,-72
2018-07-01T01:54:44.603Z,-72
2018-07-01T01:57:25.611Z,-72
2018-07-01T02:00:00.934Z,-72
2018-07-01T02:02:41.612Z,-72
2018-07-01T02:05:45.977Z,-73
2018-07-01T02:08:53.515Z,-73
2018-07-01T02:11:24.504Z,-73
2018-07-01T02:13:58.443Z,-72
2018-07-01T02:17:01.888Z,-72
2018-07-01T02:19:32.180Z,-72
2018-07-01T02:22:04.243Z,-72
2018-07-01T02:24:38.554Z,-72
2018-07-01T02:27:08.882Z,-72
2018-07-01T02:29:39.177Z,-72
2018-07-01T02:32:09.613Z,-72
2018-07-01T02:34:39.891Z,-72
2018-07-01T02:37:10.385Z,-72
2018-07-01T02:39:40.617Z,-72
2018-07-01T02:42:10.913Z,-72
2018-07-01T02:44:41.147Z,-72
2018-07-01T02:47:11.378Z,-72
2018-07-01T02:49:41.769Z,-72
2018-07-01T02:52:12.483Z,-72
2018-07-01T02:54:42.691Z,-72
2018-07-01T02:57:12.969Z,-72
2018-07-01T02:59:43.199Z,-72
2018-07-01T03:02:13.719Z,-72
2018-07-01T03:04:43.946Z,-72
2018-07-01T03:07:14.498Z,-72
2018-07-01T03:09:45.796Z,-72
2018-07-01T03:12:16.026Z,-72
2018-07-01T03:14:46.601Z,-72
2018-07-01T03:17:16.979Z,-72
2018-07-01T03:19:47.441Z,-72
2018-07-01T03:22:17.894Z,-72
2018-07-01T03:24:48.199Z,-72
2018-07-01T03:27:18.946Z,-72
2018-07-01T03:29:49.184Z,-73
2018-07-01T03:32:19.662Z,-72
2018-07-01T03:34:49.924Z,-72
2018-07-01T03:37:20.222Z,-72
2018-07-01T03:39:50.446Z,-72
2018-07-01T03:42:20.688Z,-72
2018-07-01T03:44:50.967Z,-72
2018-07-01T03:47:21.243Z,-72
2018-07-01T03:49:51.519Z,-72
2018-07-01T03:52:22.186Z,-72
2018-07-01T03:54:52.407Z,-72
2018-07-01T03:57:22.678Z,-72
2018-07-01T03:59:52.902Z,-72
2018-07-01T04:02:23.256Z,-72
2018-07-01T04:04:53.510Z,-72
2018-07-01T04:07:23.757Z,-72
2018-07-01T04:09:53.951Z,-72
2018-07-01T04:12:24.234Z,-72
2018-07-01T04:14:54.459Z,-72
2018-07-01T04:17:24.761Z,-72
2018-07-01T04:19:54.983Z,-72
2018-07-01T04:22:25.276Z,-73
2018-07-01T04:24:55.502Z,-72
2018-07-01T04:27:25.794Z,-72
2018-07-01T04:29:56.017Z,-72
2018-07-01T04:32:26.270Z,-72
2018-07-01T04:34:56.479Z,-72
2018-07-01T04:37:26.754Z,-72
2018-07-01T04:39:57.029Z,-72
2018-07-01T04:42:27.278Z,-71
2018-07-01T04:44:57.511Z,-72
2018-07-01T04:47:27.791Z,-72
2018-07-01T04:49:58.011Z,-72
2018-07-01T04:52:28.279Z,-72
2018-07-01T04:54:58.539Z,-72
2018-07-01T04:57:28.753Z,-72
2018-07-01T04:59:58.998Z,-72
2018-07-01T05:02:29.295Z,-72
2018-07-01T05:04:59.479Z,-72
2018-07-01T05:07:29.751Z,-72
2018-07-01T05:09:59.987Z,-73
2018-07-01T05:12:30.231Z,-72
2018-07-01T05:15:00.519Z,-72
2018-07-01T05:17:30.762Z,-72
2018-07-01T05:20:01.055Z,-72
2018-07-01T05:22:31.287Z,-72
2018-07-01T05:25:01.503Z,-72
2018-07-01T05:27:32.291Z,-72
2018-07-01T05:30:02.872Z,-72
2018-07-01T05:32:33.187Z,-72
2018-07-01T05:35:03.685Z,-72
2018-07-01T05:37:35.482Z,-72
2018-07-01T05:40:06.022Z,-71
2018-07-01T05:42:36.542Z,-72
2018-07-01T05:45:06.911Z,-73
2018-07-01T05:47:37.691Z,-73
2018-07-01T05:50:09.433Z,-72
2018-07-01T05:52:48.956Z,-73
2018-07-01T05:55:19.508Z,-72
2018-07-01T05:57:50.042Z,-73
2018-07-01T06:00:20.342Z,-72
2018-07-01T06:02:50.690Z,-73
2018-07-01T06:05:21.015Z,-73
2018-07-01T06:07:51.446Z,-72
2018-07-01T06:10:21.792Z,-73
2018-07-01T06:12:52.244Z,-73
2018-07-01T06:15:22.484Z,-73
2018-07-01T06:17:52.751Z,-73
2018-07-01T06:20:23.043Z,-72
2018-07-01T06:22:53.422Z,-73
2018-07-01T06:25:24.074Z,-73
2018-07-01T06:27:54.760Z,-73
2018-07-01T06:30:25.034Z,-72
2018-07-01T06:32:55.503Z,-73
2018-07-01T06:35:26.793Z,-73
2018-07-01T06:38:03.879Z,-73
2018-07-01T06:40:35.684Z,-74
2018-07-01T06:43:07.785Z,-72
2018-07-01T06:45:38.124Z,-72
2018-07-01T06:48:09.010Z,-73
2018-07-01T06:50:39.451Z,-72
2018-07-01T06:53:10.136Z,-73
2018-07-01T06:55:42.646Z,-73
2018-07-01T06:58:17.362Z,-70
2018-07-01T07:00:51.756Z,-73
2018-07-01T07:03:24.830Z,-74
2018-07-01T07:05:54.989Z,-73
2018-07-01T07:08:25.150Z,-73
2018-07-01T07:10:55.473Z,-72
2018-07-01T07:13:25.443Z,-72
2018-07-01T07:15:55.813Z,-72
2018-07-01T07:18:30.847Z,-72
2018-07-01T07:21:02.471Z,-72
2018-07-01T07:23:33.556Z,-72
2018-07-01T07:26:04.860Z,-73
2018-07-01T07:28:35.594Z,-73
2018-07-01T07:31:06.368Z,-73
2018-07-01T07:33:39.726Z,-73
2018-07-01T07:36:11.415Z,-74
2018-07-01T07:38:43.855Z,-73
2018-07-01T07:41:14.789Z,-73
2018-07-01T07:43:44.872Z,-73
2018-07-01T07:46:15.086Z,-73
2018-07-01T07:48:47.232Z,-73
2018-07-01T07:51:17.728Z,-73
2018-07-01T07:53:48.102Z,-71
2018-07-01T07:56:20.065Z,-72
2018-07-01T07:58:50.580Z,-72
2018-07-01T08:01:20.680Z,-72
2018-07-01T08:03:50.894Z,-72
2018-07-01T08:06:27.184Z,-72
2018-07-01T08:09:03.393Z,-72
2018-07-01T08:11:35.528Z,-72
2018-07-01T08:14:06.954Z,-71
2018-07-01T08:16:37.571Z,-72
2018-07-01T08:19:12.056Z,-72
2018-07-01T08:21:42.314Z,-72
2018-07-01T08:24:13.120Z,-72
2018-07-01T08:26:43.481Z,-72
2018-07-01T08:29:13.906Z,-71
2018-07-01T08:31:44.500Z,-72
2018-07-01T08:34:15.214Z,-72
2018-07-01T08:36:45.487Z,-72
2018-07-01T08:39:16.870Z,-72
2018-07-01T08:42:36.973Z,-72
2018-07-01T08:45:09.175Z,-72
2018-07-01T08:47:40.339Z,-72
2018-07-01T08:50:12.796Z,-71
2018-07-01T08:52:43.030Z,-71
2018-07-01T08:55:13.258Z,-72
2018-07-01T08:57:43.535Z,-72
2018-07-01T09:00:14.117Z,-72
2018-07-01T09:02:45.199Z,-72
2018-07-01T09:05:17.053Z,-72
2018-07-01T09:07:48.421Z,-72
2018-07-01T09:10:19.743Z,-72
2018-07-01T09:12:50.346Z,-72
2018-07-01T09:15:22.709Z,-72
2018-07-01T09:17:53.653Z,-73
2018-07-01T09:20:23.999Z,-73
2018-07-01T09:22:54.452Z,-72
2018-07-01T09:25:24.700Z,-72
2018-07-01T09:27:55.443Z,-72
2018-07-01T09:30:25.786Z,-72
2018-07-01T09:32:56.090Z,-72
2018-07-01T09:35:26.387Z,-72
2018-07-01T09:37:56.766Z,-73
2018-07-01T09:40:27.008Z,-72
2018-07-01T09:42:57.518Z,-73
2018-07-01T09:45:28.285Z,-72
2018-07-01T09:47:58.719Z,-73
2018-07-01T09:50:29.760Z,-71
2018-07-01T09:53:00.073Z,-72
2018-07-01T09:55:30.323Z,-72
2018-07-01T09:58:01.399Z,-72
2018-07-01T10:00:32.207Z,-72
2018-07-01T10:03:03.319Z,-72
2018-07-01T10:05:35.926Z,-71
2018-07-01T10:08:06.696Z,-72
2018-07-01T10:10:37.717Z,-72
2018-07-01T10:13:09.061Z,-72
2018-07-01T10:15:40.054Z,-72
2018-07-01T10:18:11.089Z,-73
2018-07-01T10:20:42.767Z,-74
2018-07-01T10:23:13.871Z,-73
2018-07-01T10:25:44.475Z,-74
2018-07-01T10:28:16.631Z,-73
2018-07-01T10:30:47.334Z,-73
2018-07-01T10:33:17.934Z,-73
2018-07-01T10:35:48.998Z,-73
2018-07-01T10:38:20.800Z,-73
2018-07-01T10:40:51.075Z,-73
2018-07-01T10:43:21.564Z,-73
2018-07-01T10:45:51.911Z,-73
2018-07-01T10:48:24.187Z,-73
2018-07-01T10:50:54.532Z,-73
2018-07-01T10:53:26.752Z,-73
2018-07-01T10:55:58.854Z,-73
2018-07-01T10:58:31.689Z,-73
2018-07-01T11:01:03.393Z,-73
2018-07-01T11:03:34.653Z,-73
2018-07-01T11:06:07.968Z,-73
2018-07-01T11:08:38.651Z,-73
2018-07-01T11:11:10.807Z,-73
2018-07-01T11:13:46.779Z,-70
2018-07-01T11:16:30.194Z,-70
2018-07-01T11:22:22.235Z,-70
2018-07-01T11:25:05.441Z,-69
2018-07-01T11:27:46.704Z,-70
2018-07-01T11:30:24.275Z,-70
2018-07-01T11:33:08.786Z,-70
2018-07-01T11:35:46.611Z,-70
2018-07-01T11:41:17.109Z,-70
2018-07-01T11:43:54.127Z,-69
2018-07-01T11:46:27.460Z,-70
2018-07-01T11:49:32.142Z,-70
2018-07-01T11:52:04.592Z,-69
2018-07-01T11:54:39.291Z,-69
2018-07-01T11:57:10.586Z,-70
2018-07-01T11:59:42.530Z,-69
2018-07-01T12:02:13.250Z,-70
2018-07-01T12:05:02.955Z,-70
2018-07-01T12:07:15.123Z,-70
2018-07-01T12:09:45.907Z,-70
2018-07-01T12:12:17.822Z,-70
2018-07-01T12:14:49.654Z,-70
2018-07-01T12:17:20.998Z,-71
2018-07-01T12:19:54.010Z,-70
2018-07-01T12:22:24.376Z,-70
2018-07-01T12:24:54.933Z,-70
2018-07-01T12:27:25.159Z,-70
2018-07-01T12:29:55.547Z,-70
2018-07-01T12:32:25.769Z,-70
2018-07-01T12:34:56.004Z,-70
2018-07-01T12:37:26.254Z,-70
2018-07-01T12:39:56.622Z,-69
2018-07-01T12:42:27.120Z,-70
2018-07-01T12:45:01.978Z,-70
2018-07-01T12:47:33.157Z,-69
2018-07-01T12:50:03.776Z,-69
2018-07-01T12:52:34.090Z,-70
2018-07-01T12:55:05.005Z,-69
2018-07-01T12:57:36.934Z,-69
2018-07-01T13:00:10.393Z,-69
2018-07-01T13:02:42.066Z,-69
2018-07-01T13:05:42.557Z,-69
2018-07-01T13:08:17.962Z,-69
2018-07-01T13:10:50.580Z,-69
2018-07-01T13:13:24.193Z,-69
2018-07-01T13:15:57.466Z,-69
2018-07-01T13:18:28.589Z,-68
2018-07-01T13:21:02.938Z,-69
2018-07-01T13:23:36.981Z,-69
2018-07-01T13:26:09.782Z,-69
2018-07-01T13:28:41.613Z,-69
2018-07-01T13:31:14.121Z,-69
2018-07-01T13:33:45.793Z,-69
2018-07-01T13:36:16.640Z,-69
2018-07-01T13:38:46.893Z,-68
2018-07-01T13:41:17.512Z,-69
2018-07-01T13:43:48.461Z,-70
2018-07-01T13:46:20.165Z,-69
2018-07-01T13:48:51.602Z,-70
2018-07-01T13:51:23.048Z,-69
2018-07-01T13:53:54.771Z,-69
2018-07-01T13:56:25.698Z,-69
2018-07-01T13:58:56.667Z,-70
2018-07-01T14:01:28.670Z,-69
2018-07-01T14:04:00.496Z,-70
2018-07-01T14:06:34.153Z,-70
2018-07-01T14:09:08.448Z,-70
2018-07-01T14:11:41.651Z,-70
2018-07-01T14:14:13.093Z,-71
2018-07-01T14:16:43.719Z,-70
2018-07-01T14:19:14.146Z,-70
2018-07-01T14:21:44.983Z,-69
2018-07-01T14:24:15.255Z,-70
2018-07-01T14:26:48.562Z,-69
2018-07-01T14:29:19.375Z,-69
2018-07-01T14:31:50.511Z,-69
2018-07-01T14:34:20.859Z,-70
2018-07-01T14:36:51.259Z,-69
2018-07-01T14:39:22.049Z,-69
2018-07-01T14:41:55.220Z,-69
2018-07-01T14:44:27.127Z,-69
2018-07-01T14:46:58.044Z,-69
2018-07-01T14:49:29.599Z,-69
2018-07-01T14:52:01.076Z,-69
2018-07-01T14:54:33.209Z,-69
2018-07-01T14:57:05.687Z,-68
2018-07-01T14:59:37.435Z,-68
2018-07-01T15:02:09.211Z,-69
2018-07-01T15:04:40.237Z,-68
2018-07-01T15:07:12.851Z,-69
2018-07-01T15:09:44.446Z,-69
2018-07-01T15:12:17.465Z,-69
2018-07-01T15:14:49.498Z,-69
2018-07-01T15:17:21.279Z,-69
2018-07-01T15:19:57.029Z,-69
2018-07-01T15:22:32.372Z,-68
2018-07-01T15:25:06.720Z,-69
2018-07-01T15:27:40.322Z,-69
2018-07-01T15:30:15.346Z,-69
2018-07-01T15:32:48.314Z,-68
2018-07-01T15:35:20.286Z,-69
2018-07-01T15:37:53.073Z,-69
2018-07-01T15:40:28.884Z,-69
2018-07-01T15:43:04.166Z,-69
2018-07-01T15:45:39.937Z,-69
2018-07-01T15:48:14.439Z,-69
2018-07-01T15:50:47.148Z,-69
2018-07-01T15:53:21.539Z,-69
2018-07-01T15:55:52.623Z,-69
2018-07-01T15:58:24.828Z,-69
2018-07-01T16:00:57.626Z,-69
2018-07-01T16:03:29.331Z,-69
2018-07-01T16:06:00.608Z,-69
2018-07-01T16:08:33.583Z,-69
2018-07-01T16:11:05.491Z,-70
2018-07-01T16:13:36.132Z,-69
2018-07-01T16:16:06.724Z,-69
2018-07-01T16:18:37.824Z,-69
2018-07-01T16:21:08.577Z,-69
2018-07-01T16:23:39.437Z,-69
2018-07-01T16:26:15.712Z,-69
2018-07-01T16:28:51.737Z,-69
2018-07-01T16:31:23.577Z,-69
2018-07-01T16:33:54.061Z,-69
2018-07-01T16:36:25.651Z,-68
2018-07-01T16:38:56.629Z,-69
2018-07-01T16:41:28.293Z,-69
2018-07-01T16:43:59.642Z,-68
2018-07-01T16:46:30.779Z,-69
2018-07-01T16:49:01.433Z,-68
2018-07-01T16:51:32.075Z,-68
2018-07-01T16:54:03.347Z,-68
2018-07-01T16:56:37.223Z,-68
2018-07-01T16:59:09.239Z,-69
2018-07-01T17:01:39.526Z,-68
2018-07-01T17:04:10.405Z,-68
2018-07-01T17:06:41.334Z,-69
2018-07-01T17:09:12.893Z,-69
2018-07-01T17:11:43.979Z,-68
2018-07-01T17:14:14.828Z,-68
2018-07-01T17:16:45.130Z,-68
2018-07-01T17:19:15.363Z,-68
2018-07-01T17:21:45.727Z,-68
2018-07-01T17:24:15.970Z,-68
2018-07-01T17:26:46.327Z,-70
2018-07-01T17:29:16.748Z,-69
2018-07-01T17:31:52.198Z,-69
2018-07-01T17:34:23.542Z,-69
2018-07-01T17:36:54.162Z,-72
2018-07-01T17:39:25.076Z,-71
2018-07-01T17:41:55.563Z,-72
2018-07-01T17:44:26.884Z,-70
2018-07-01T17:47:00.767Z,-71
2018-07-01T17:49:31.272Z,-70
2018-07-01T17:52:02.075Z,-71
2018-07-01T17:54:32.895Z,-73
2018-07-01T17:57:04.188Z,-73
2018-07-01T17:59:34.900Z,-72
2018-07-01T18:02:06.794Z,-72
2018-07-01T18:04:39.109Z,-72
2018-07-01T18:07:11.429Z,-73
2018-07-01T18:09:43.436Z,-72
2018-07-01T18:12:18.718Z,-72
2018-07-01T18:15:01.348Z,-71
2018-07-01T18:17:39.048Z,-72
2018-07-01T18:20:11.268Z,-71
2018-07-01T18:23:09.767Z,-72
2018-07-01T18:25:15.242Z,-72
2018-07-01T18:28:15.014Z,-72
2018-07-01T18:30:36.868Z,-71
2018-07-01T18:33:18.161Z,-71
2018-07-01T18:35:52.551Z,-72
2018-07-01T18:38:26.239Z,-73
2018-07-01T18:41:05.530Z,-72
2018-07-01T18:43:41.024Z,-73
2018-07-01T18:46:16.488Z,-72
2018-07-01T18:48:50.588Z,-72
2018-07-01T18:51:28.914Z,-72
2018-07-01T18:54:01.007Z,-72
2018-07-01T18:56:32.910Z,-72
2018-07-01T18:59:06.464Z,-72
2018-07-01T19:01:41.589Z,-72
2018-07-01T19:04:15.314Z,-72
2018-07-01T19:06:55.260Z,-73
2018-07-01T19:09:38.969Z,-72
2018-07-01T19:12:13.574Z,-72
2018-07-01T19:14:54.624Z,-72
2018-07-01T19:17:26.760Z,-72
2018-07-01T19:20:04.286Z,-71
2018-07-01T19:22:38.026Z,-72
2018-07-01T19:25:11.117Z,-72
2018-07-01T19:27:42.738Z,-72
2018-07-01T19:30:14.800Z,-72
2018-07-01T19:32:45.792Z,-72
2018-07-01T19:35:18.010Z,-72
2018-07-01T19:37:48.444Z,-72
2018-07-01T19:40:20.256Z,-73
2018-07-01T19:42:52.372Z,-71
2018-07-01T19:45:22.847Z,-71
2018-07-01T19:47:53.929Z,-72
2018-07-01T19:50:26.022Z,-72
2018-07-01T19:52:56.668Z,-72
2018-07-01T19:55:29.300Z,-72
2018-07-01T19:58:00.813Z,-72
2018-07-01T20:00:32.124Z,-72
2018-07-01T20:03:03.283Z,-71
2018-07-01T20:05:35.171Z,-72
2018-07-01T20:08:19.056Z,-73
2018-07-01T20:10:50.588Z,-72
2018-07-01T20:13:21.364Z,-72
2018-07-01T20:15:52.411Z,-71
2018-07-01T20:18:23.257Z,-72
2018-07-01T20:20:54.820Z,-72
2018-07-01T20:23:25.590Z,-72
2018-07-01T20:25:56.411Z,-72
2018-07-01T20:28:27.237Z,-72
2018-07-01T20:30:58.442Z,-71
2018-07-01T20:33:29.419Z,-72
2018-07-01T20:36:03.095Z,-71
2018-07-01T20:38:35.542Z,-72
2018-07-01T20:41:08.200Z,-71
2018-07-01T20:43:39.570Z,-71
2018-07-01T20:46:10.478Z,-71
2018-07-01T20:48:41.480Z,-72
2018-07-01T20:51:11.849Z,-72
2018-07-01T20:53:42.803Z,-72
2018-07-01T20:56:14.880Z,-71
2018-07-01T20:58:45.778Z,-71
2018-07-01T21:01:18.392Z,-72
2018-07-01T21:03:50.643Z,-73
2018-07-01T21:06:23.142Z,-72
2018-07-01T21:08:54.403Z,-72
2018-07-01T21:11:25.339Z,-71
2018-07-01T21:14:01.521Z,-72
2018-07-01T21:17:07.555Z,-72
2018-07-01T21:20:08.660Z,-72
2018-07-01T21:22:57.240Z,-71
2018-07-01T21:25:29.549Z,-72
2018-07-01T21:36:58.659Z,-72
2018-07-01T21:39:35.820Z,-72
2018-07-01T21:42:06.247Z,-72
2018-07-01T21:44:37.522Z,-72
2018-07-01T21:47:08.142Z,-72
2018-07-01T21:49:38.651Z,-73
2018-07-01T21:52:16.345Z,-74
2018-07-01T21:54:47.012Z,-73
2018-07-01T21:57:17.385Z,-74
2018-07-01T21:59:47.762Z,-73
2018-07-01T22:02:20.883Z,-73
2018-07-01T22:04:51.297Z,-73
2018-07-01T22:07:21.647Z,-75
2018-07-01T22:09:53.844Z,-73
2018-07-01T22:12:41.414Z,-73
2018-07-01T22:15:29.077Z,-72
2018-07-01T22:17:59.459Z,-73
2018-07-01T22:20:30.575Z,-72
2018-07-01T22:23:00.820Z,-73
2018-07-01T22:25:31.092Z,-72
2018-07-01T22:28:01.610Z,-73
2018-07-01T22:30:31.840Z,-72
2018-07-01T22:33:02.106Z,-72
2018-07-01T22:35:34.090Z,-72
2018-07-01T22:38:04.908Z,-72
2018-07-01T22:40:35.822Z,-72
2018-07-01T22:43:06.344Z,-73
2018-07-01T22:45:36.865Z,-72
2018-07-01T22:48:07.678Z,-73
2018-07-01T22:50:37.950Z,-73
2018-07-01T22:53:08.389Z,-73
2018-07-01T22:55:38.685Z,-72
2018-07-01T22:58:09.127Z,-72
2018-07-01T23:00:39.866Z,-73
2018-07-01T23:03:16.694Z,-72
2018-07-01T23:05:46.951Z,-72
2018-07-01T23:08:17.239Z,-73
2018-07-01T23:10:47.503Z,-72
2018-07-01T23:13:17.843Z,-72
2018-07-01T23:15:48.200Z,-73
2018-07-01T23:18:18.822Z,-73
2018-07-01T23:20:49.120Z,-73
2018-07-01T23:23:19.711Z,-73
2018-07-01T23:25:50.020Z,-73
2018-07-01T23:28:20.271Z,-73
2018-07-01T23:30:50.570Z,-72
2018-07-01T23:33:21.096Z,-72
2018-07-01T23:35:51.477Z,-73
2018-07-01T23:38:22.166Z,-72
2018-07-01T23:40:52.446Z,-72
2018-07-01T23:43:22.800Z,-73
2018-07-01T23:45:53.101Z,-73
2018-07-01T23:48:23.351Z,-73
2018-07-01T23:50:53.658Z,-73
2018-07-01T23:53:23.894Z,-73
2018-07-01T23:55:54.183Z,-73
2018-07-01T23:58:24.406Z,-73
